createdAt,value
2022-08-30T00:36:30.259Z,18.41
2022-08-30T00:44:49.146Z,18.38
2022-08-30T00:48:36.908Z,18.41
2022-08-30T00:59:58.407Z,18.35
2022-08-30T01:41:23.233Z,18.21
2022-08-30T01:48:08.561Z,18.18
2022-08-30T01:51:51.268Z,18.13
2022-08-30T01:55:35.223Z,18.12
2022-08-30T01:59:18.272Z,18.08
2022-08-30T02:03:04.833Z,18.05
2022-08-30T02:36:32.276Z,17.91
2022-08-30T02:51:45.607Z,17.83
2022-08-30T02:59:19.134Z,17.84
2022-08-30T03:03:17.522Z,17.78
2022-08-30T03:21:15.660Z,17.67
2022-08-30T03:24:35.300Z,17.67
2022-08-30T04:01:01.981Z,17.79
2022-08-30T04:04:59.847Z,17.81
2022-08-30T04:09:03.468Z,17.83
2022-08-30T04:16:07.328Z,17.86
2022-08-30T04:23:43.187Z,17.90
2022-08-30T04:48:50.978Z,18.06
2022-08-30T04:59:23.380Z,18.13
2022-08-30T05:06:09.533Z,18.22
2022-08-30T05:16:54.086Z,18.28
2022-08-30T05:20:31.540Z,18.31
2022-08-30T05:24:33.349Z,18.33
2022-08-30T05:31:32.603Z,18.37
2022-08-30T05:53:51.282Z,18.48
2022-08-30T05:56:48.039Z,18.52
2022-08-30T05:59:26.903Z,18.59
2022-08-30T06:02:02.412Z,18.68
2022-08-30T06:05:18.633Z,18.72
2022-08-30T06:11:56.048Z,18.85
2022-08-30T06:15:12.558Z,18.90
2022-08-30T06:17:45.090Z,18.99
2022-08-30T06:20:24.476Z,19.06
2022-08-30T06:23:33.433Z,19.16
2022-08-30T06:26:22.021Z,19.21
2022-08-30T06:29:19.501Z,19.24
2022-08-30T06:32:10.829Z,19.25
2022-08-30T06:34:43.280Z,19.30
2022-08-30T06:37:29.196Z,19.38
2022-08-30T06:40:05.815Z,19.45
2022-08-30T06:42:36.743Z,19.47
2022-08-30T06:45:13.234Z,19.53
2022-08-30T06:47:45.143Z,19.58
2022-08-30T06:50:19.518Z,19.59
2022-08-30T06:52:55.904Z,19.60
2022-08-30T06:55:38.932Z,19.65
2022-08-30T06:58:16.839Z,19.71
2022-08-30T07:00:53.951Z,19.75
2022-08-30T07:03:28.286Z,19.78
2022-08-30T07:06:16.038Z,19.81
2022-08-30T07:08:56.051Z,19.80
2022-08-30T07:11:37.342Z,19.77
2022-08-30T07:14:07.243Z,19.74
2022-08-30T07:16:43.603Z,19.78
2022-08-30T07:19:20.339Z,19.85
2022-08-30T07:21:50.764Z,19.85
2022-08-30T07:24:20.845Z,19.85
2022-08-30T07:26:53.957Z,19.84
2022-08-30T07:29:25.784Z,19.90
2022-08-30T07:32:00.753Z,19.99
2022-08-30T07:35:08.430Z,20.06
2022-08-30T07:37:45.787Z,20.11
2022-08-30T07:40:19.627Z,20.21
2022-08-30T07:42:52.939Z,20.36
2022-08-30T07:45:35.451Z,20.53
2022-08-30T07:48:16.966Z,20.71
2022-08-30T07:50:58.978Z,20.85
2022-08-30T07:53:46.372Z,20.99
2022-08-30T07:56:25.467Z,21.13
2022-08-30T07:59:08.223Z,21.25
2022-08-30T08:04:48.984Z,21.50
2022-08-30T08:07:33.937Z,21.58
2022-08-30T08:13:32.925Z,21.58
2022-08-30T08:16:29.434Z,21.55
2022-08-30T08:19:09.518Z,21.62
2022-08-30T08:21:41.888Z,21.67
2022-08-30T08:24:15.586Z,21.66
2022-08-30T08:26:49.433Z,21.67
2022-08-30T08:29:34.360Z,21.69
2022-08-30T08:32:08.331Z,21.60
2022-08-30T08:34:56.189Z,21.60
2022-08-30T08:37:42.614Z,21.67
2022-08-30T08:40:23.678Z,21.75
2022-08-30T08:44:05.659Z,21.77
2022-08-30T08:47:21.238Z,21.78
2022-08-30T08:50:01.834Z,21.76
2022-08-30T08:53:24.886Z,21.76
2022-08-30T08:56:20.762Z,21.78
2022-08-30T08:59:07.117Z,21.84
2022-08-30T09:01:51.173Z,21.85
2022-08-30T09:04:41.745Z,21.79
2022-08-30T09:07:39.490Z,21.74
2022-08-30T09:10:46.941Z,21.70
2022-08-30T09:13:39.010Z,21.72
2022-08-30T09:16:57.813Z,21.80
2022-08-30T09:19:45.420Z,21.87
2022-08-30T09:22:47.485Z,21.95
2022-08-30T09:25:42.221Z,22.07
2022-08-30T09:29:02.743Z,22.21
2022-08-30T09:35:57.818Z,22.49
2022-08-30T09:38:48.327Z,22.82
2022-08-30T09:41:41.618Z,23.28
2022-08-30T09:44:30.178Z,23.66
2022-08-30T09:47:36.539Z,23.79
2022-08-30T09:50:42.289Z,24.03
2022-08-30T09:53:34.388Z,24.23
2022-08-30T09:57:44.189Z,24.20
2022-08-30T10:01:16.733Z,24.13
2022-08-30T10:04:32.227Z,24.24
2022-08-30T10:07:18.654Z,24.23
2022-08-30T10:10:03.515Z,24.14
2022-08-30T10:13:25.190Z,24.15
2022-08-30T10:16:06.930Z,24.08
2022-08-30T10:19:18.573Z,23.91
2022-08-30T10:21:58.746Z,23.71
2022-08-30T10:24:45.562Z,23.54
2022-08-30T10:27:58.782Z,23.37
2022-08-30T10:30:32.439Z,23.26
2022-08-30T10:33:10.600Z,23.25
2022-08-30T10:35:49.465Z,23.36
2022-08-30T10:38:20.334Z,23.62
2022-08-30T10:41:15.944Z,23.72
2022-08-30T10:44:46.037Z,23.70
2022-08-30T10:47:45.259Z,23.63
2022-08-30T10:50:33.919Z,23.52
2022-08-30T10:53:24.338Z,23.56
2022-08-30T10:56:13.242Z,23.94
2022-08-30T10:58:47.016Z,24.23
2022-08-30T11:01:47.353Z,24.24
2022-08-30T11:04:45.363Z,24.31
2022-08-30T11:07:59.410Z,24.33
2022-08-30T11:19:38.380Z,24.43
2022-08-30T11:22:34.399Z,24.46
2022-08-30T11:25:39.057Z,24.45
2022-08-30T11:28:09.241Z,24.38
2022-08-30T11:30:52.890Z,24.33
2022-08-30T11:33:42.727Z,24.24
2022-08-30T11:36:37.341Z,24.13
2022-08-30T11:39:17.285Z,24.01
2022-08-30T11:42:14.167Z,24.02
2022-08-30T11:45:35.593Z,24.11
2022-08-30T11:49:15.707Z,24.22
2022-08-30T11:52:27.221Z,24.34
2022-08-30T11:56:10.907Z,24.40
2022-08-30T11:59:43.453Z,24.52
2022-08-30T12:03:02.997Z,24.55
2022-08-30T12:06:42.210Z,24.51
2022-08-30T12:09:30.652Z,24.43
2022-08-30T12:12:06.482Z,24.36
2022-08-30T12:15:28.593Z,24.30
2022-08-30T12:18:19.309Z,24.07
2022-08-30T12:20:53.682Z,23.89
2022-08-30T12:24:21.453Z,23.75
2022-08-30T12:26:55.298Z,23.56
2022-08-30T12:32:32.498Z,23.44
2022-08-30T12:35:08.798Z,23.46
2022-08-30T12:37:42.156Z,23.48
2022-08-30T12:40:35.652Z,23.45
2022-08-30T12:43:40.445Z,23.42
2022-08-30T12:46:59.604Z,23.41
2022-08-30T12:49:51.702Z,23.39
2022-08-30T12:56:49.549Z,23.37
2022-08-30T12:59:59.595Z,23.23
2022-08-30T13:03:42.988Z,23.17
2022-08-30T13:10:51.652Z,22.92
2022-08-30T13:14:04.562Z,22.90
2022-08-30T13:16:50.029Z,22.93
2022-08-30T13:21:10.627Z,22.95
2022-08-30T13:23:48.717Z,22.87
2022-08-30T13:26:32.410Z,22.82
2022-08-30T13:29:14.514Z,22.79
2022-08-30T13:31:44.941Z,22.77
2022-08-30T13:34:30.678Z,22.77
2022-08-30T13:37:49.554Z,22.65
2022-08-30T13:40:32.133Z,22.48
2022-08-30T13:43:04.882Z,22.42
2022-08-30T13:45:44.668Z,22.37
2022-08-30T13:48:37.351Z,22.37
2022-08-30T13:51:28.721Z,22.38
2022-08-30T13:54:07.658Z,22.36
2022-08-30T14:00:37.848Z,22.40
2022-08-30T14:04:13.197Z,22.39
2022-08-30T14:07:22.436Z,22.35
2022-08-30T14:13:24.310Z,22.34
2022-08-30T14:23:03.976Z,22.30
2022-08-30T14:25:47.106Z,22.35
2022-08-30T14:28:21.809Z,22.37
2022-08-30T14:31:13.458Z,22.42
2022-08-30T14:34:31.599Z,22.39
2022-08-30T14:37:28.842Z,22.34
2022-08-30T14:40:32.650Z,22.35
2022-08-30T14:43:56.050Z,22.31
2022-08-30T14:47:05.302Z,22.27
2022-08-30T14:49:58.636Z,22.28
2022-08-30T14:52:46.454Z,22.29
2022-08-30T14:56:34.488Z,22.31
2022-08-30T14:59:19.752Z,22.31
2022-08-30T15:02:11.396Z,22.32
2022-08-30T15:04:59.852Z,22.36
2022-08-30T15:11:31.387Z,22.38
2022-08-30T15:14:44.102Z,22.35
2022-08-30T15:21:12.536Z,22.25
2022-08-30T15:25:12.228Z,22.22
2022-08-30T15:28:23.568Z,22.23
2022-08-30T15:31:31.318Z,22.21
2022-08-30T15:34:33.632Z,22.18
2022-08-30T15:37:28.837Z,22.11
2022-08-30T15:40:30.608Z,22.05
2022-08-30T15:43:03.940Z,21.98
2022-08-30T15:45:34.072Z,21.92
2022-08-30T15:48:38.935Z,21.83
2022-08-30T15:51:46.501Z,21.70
2022-08-30T15:54:55.886Z,21.62
2022-08-30T15:58:31.604Z,21.59
2022-08-30T16:02:03.442Z,21.47
2022-08-30T16:04:47.530Z,21.43
2022-08-30T16:07:49.536Z,21.41
2022-08-30T16:10:47.962Z,21.38
2022-08-30T16:15:53.613Z,21.36
2022-08-30T16:17:45.343Z,21.34
2022-08-30T16:21:35.090Z,21.32
2022-08-30T16:33:02.648Z,21.23
2022-08-30T16:36:26.538Z,21.21
2022-08-30T16:39:08.355Z,21.17
2022-08-30T16:47:52.115Z,21.07
2022-08-30T16:50:23.463Z,21.05
2022-08-30T16:52:52.743Z,21.02
2022-08-30T16:55:23.035Z,20.98
2022-08-30T16:57:52.327Z,20.95
2022-08-30T17:00:30.630Z,20.92
2022-08-30T17:03:02.597Z,20.88
2022-08-30T17:05:33.025Z,20.84
2022-08-30T17:08:04.043Z,20.79
2022-08-30T17:10:35.753Z,20.74
2022-08-30T17:13:11.078Z,20.72
2022-08-30T17:15:47.524Z,20.70
2022-08-30T17:18:20.511Z,20.66
2022-08-30T17:20:59.205Z,20.62
2022-08-30T17:23:31.915Z,20.59
2022-08-30T17:26:04.022Z,20.56
2022-08-30T17:28:51.431Z,20.53
2022-08-30T17:31:34.893Z,20.50
2022-08-30T17:34:27.933Z,20.47
2022-08-30T17:38:13.641Z,20.47
2022-08-30T17:40:58.892Z,20.41
2022-08-30T17:43:38.098Z,20.39
2022-08-30T17:49:22.587Z,20.40
2022-08-30T17:52:07.168Z,20.40
2022-08-30T17:54:50.952Z,20.40
2022-08-30T18:01:54.754Z,20.36
2022-08-30T18:05:27.926Z,20.33
2022-08-30T18:08:20.506Z,20.34
2022-08-30T18:11:13.430Z,20.34
2022-08-30T18:17:30.727Z,20.31
2022-08-30T18:20:18.446Z,20.29
2022-08-30T18:24:10.765Z,20.25
2022-08-30T18:27:31.175Z,20.19
2022-08-30T18:30:32.690Z,20.15
2022-08-30T18:33:51.750Z,20.10
2022-08-30T18:36:47.505Z,20.08
2022-08-30T18:40:02.992Z,20.07
2022-08-30T18:43:45.036Z,20.00
2022-08-30T18:47:23.127Z,19.94
2022-08-30T18:51:01.611Z,19.93
2022-08-30T18:57:42.583Z,19.88
2022-08-30T19:01:34.390Z,19.89
2022-08-30T19:04:45.416Z,19.86
2022-08-30T19:12:26.264Z,19.82
2022-08-30T19:20:37.598Z,19.67
2022-08-30T19:24:04.379Z,19.66
2022-08-30T19:27:37.325Z,19.64
2022-08-30T19:32:57.643Z,19.62
2022-08-30T19:41:09.199Z,19.57
2022-08-30T19:43:53.551Z,19.60
2022-08-30T19:46:32.325Z,19.63
2022-08-30T19:53:05.011Z,19.62
2022-08-30T19:55:59.660Z,19.59
2022-08-30T19:59:24.255Z,19.55
2022-08-30T20:11:01.731Z,19.35
2022-08-30T20:13:44.925Z,19.34
2022-08-30T20:16:46.419Z,19.35
2022-08-30T20:19:47.368Z,19.35
2022-08-30T20:23:11.092Z,19.34
2022-08-30T20:26:18.578Z,19.32
2022-08-30T20:29:17.221Z,19.30
2022-08-30T20:35:31.414Z,19.14
2022-08-30T20:38:29.838Z,19.09
2022-08-30T20:41:29.414Z,19.06
2022-08-30T20:47:51.301Z,18.91
2022-08-30T20:51:06.370Z,18.90
2022-08-30T20:54:03.137Z,18.86
2022-08-30T20:57:35.996Z,18.79
2022-08-30T21:00:45.597Z,18.75
2022-08-30T21:04:26.718Z,18.70
2022-08-30T21:07:26.279Z,18.64
2022-08-30T21:10:29.071Z,18.62
2022-08-30T21:13:34.431Z,18.60
2022-08-30T21:16:24.447Z,18.57
2022-08-30T21:19:35.403Z,18.54
2022-08-30T21:23:11.709Z,18.49
2022-08-30T21:26:22.151Z,18.46
2022-08-30T21:29:38.232Z,18.42
2022-08-30T21:32:46.402Z,18.30
2022-08-30T21:35:53.118Z,18.27
2022-08-30T21:39:05.776Z,18.25
2022-08-30T21:41:58.071Z,18.22
2022-08-30T21:45:05.779Z,18.22
2022-08-30T21:47:54.027Z,18.22
2022-08-30T21:51:09.381Z,18.11
2022-08-30T21:54:17.735Z,18.07
2022-08-30T21:57:20.645Z,18.08
2022-08-30T22:00:40.237Z,18.06
2022-08-30T22:03:57.263Z,18.03
2022-08-30T22:06:39.079Z,18.01
2022-08-30T22:09:47.730Z,17.99
2022-08-30T22:12:39.093Z,17.97
2022-08-30T22:15:33.268Z,17.95
2022-08-30T22:18:59.082Z,17.91
2022-08-30T22:21:52.123Z,17.86
2022-08-30T22:24:46.950Z,17.82
2022-08-30T22:27:55.146Z,17.80
2022-08-30T22:30:45.622Z,17.78
2022-08-30T22:33:43.110Z,17.75
2022-08-30T22:36:46.546Z,17.73
2022-08-30T22:39:48.905Z,17.69
2022-08-30T22:42:48.668Z,17.68
2022-08-30T22:46:29.565Z,17.67
2022-08-30T22:53:01.955Z,17.67
2022-08-30T22:56:38.340Z,17.65
2022-08-30T22:59:53.861Z,17.62
2022-08-30T23:03:24.153Z,17.60
2022-08-30T23:07:12.687Z,17.59
2022-08-30T23:10:51.760Z,17.58
2022-08-30T23:13:50.377Z,17.59
2022-08-30T23:16:51.485Z,17.60
2022-08-30T23:20:12.480Z,17.59
2022-08-30T23:23:24.628Z,17.57
2022-08-30T23:26:24.123Z,17.56
2022-08-30T23:29:50.279Z,17.57
2022-08-30T23:33:17.543Z,17.55
2022-08-30T23:36:32.941Z,17.52
2022-08-30T23:43:56.207Z,17.49
2022-08-30T23:47:05.820Z,17.49
2022-08-30T23:51:21.904Z,17.50
2022-08-30T23:54:41.175Z,17.50
2022-08-30T23:58:07.711Z,17.52
